sensor_id;sensor_type;location;lat;lon;timestamp;P1;durP1;ratioP1;P2;durP2;ratioP2
15929;SDS011;8064;51.142;4.780;2023-02-26T00:01:46;9.47;;;2.23;;
15929;SDS011;8064;51.142;4.780;2023-02-26T00:04:14;8.60;;;2.83;;
15929;SDS011;8064;51.142;4.780;2023-02-26T00:06:40;8.63;;;2.60;;
15929;SDS011;8064;51.142;4.780;2023-02-26T00:09:16;7.60;;;2.30;;
15929;SDS011;8064;51.142;4.780;2023-02-26T00:11:43;7.00;;;2.67;;
15929;SDS011;8064;51.142;4.780;2023-02-26T00:14:11;9.37;;;2.43;;
15929;SDS011;8064;51.142;4.780;2023-02-26T00:16:40;4.40;;;2.53;;
15929;SDS011;8064;51.142;4.780;2023-02-26T00:19:06;8.27;;;2.50;;
15929;SDS011;8064;51.142;4.780;2023-02-26T00:21:34;7.43;;;2.90;;
15929;SDS011;8064;51.142;4.780;2023-02-26T00:24:01;11.43;;;2.40;;
15929;SDS011;8064;51.142;4.780;2023-02-26T00:26:27;5.57;;;2.20;;
15929;SDS011;8064;51.142;4.780;2023-02-26T00:28:54;7.97;;;2.17;;
15929;SDS011;8064;51.142;4.780;2023-02-26T00:31:20;6.57;;;2.30;;
15929;SDS011;8064;51.142;4.780;2023-02-26T00:33:49;6.20;;;2.53;;
15929;SDS011;8064;51.142;4.780;2023-02-26T00:41:58;8.20;;;3.13;;
15929;SDS011;8064;51.142;4.780;2023-02-26T00:44:24;5.10;;;2.20;;
15929;SDS011;8064;51.142;4.780;2023-02-26T00:47:04;7.20;;;2.70;;
15929;SDS011;8064;51.142;4.780;2023-02-26T00:55:27;5.27;;;2.47;;
15929;SDS011;8064;51.142;4.780;2023-02-26T00:57:53;7.53;;;2.57;;
15929;SDS011;8064;51.142;4.780;2023-02-26T01:00:19;5.37;;;2.63;;
15929;SDS011;8064;51.142;4.780;2023-02-26T01:02:45;7.13;;;2.57;;
15929;SDS011;8064;51.142;4.780;2023-02-26T01:05:12;8.63;;;2.73;;
15929;SDS011;8064;51.142;4.780;2023-02-26T01:07:39;12.50;;;2.43;;
15929;SDS011;8064;51.142;4.780;2023-02-26T01:10:11;7.40;;;2.60;;
15929;SDS011;8064;51.142;4.780;2023-02-26T01:12:37;6.57;;;2.57;;
15929;SDS011;8064;51.142;4.780;2023-02-26T01:15:04;6.73;;;2.53;;
15929;SDS011;8064;51.142;4.780;2023-02-26T01:20:20;9.63;;;3.03;;
15929;SDS011;8064;51.142;4.780;2023-02-26T01:22:59;9.77;;;3.03;;
15929;SDS011;8064;51.142;4.780;2023-02-26T01:25:29;6.70;;;3.10;;
15929;SDS011;8064;51.142;4.780;2023-02-26T01:28:19;10.27;;;2.80;;
15929;SDS011;8064;51.142;4.780;2023-02-26T01:30:45;9.80;;;3.03;;
15929;SDS011;8064;51.142;4.780;2023-02-26T01:35:47;13.33;;;3.50;;
15929;SDS011;8064;51.142;4.780;2023-02-26T01:49:57;7.73;;;2.80;;
15929;SDS011;8064;51.142;4.780;2023-02-26T01:55:24;7.00;;;2.80;;
15929;SDS011;8064;51.142;4.780;2023-02-26T01:57:52;8.43;;;2.97;;
15929;SDS011;8064;51.142;4.780;2023-02-26T02:00:21;9.73;;;2.93;;
15929;SDS011;8064;51.142;4.780;2023-02-26T02:02:48;5.77;;;2.60;;
15929;SDS011;8064;51.142;4.780;2023-02-26T02:05:17;7.03;;;3.03;;
15929;SDS011;8064;51.142;4.780;2023-02-26T02:07:48;5.07;;;2.47;;
15929;SDS011;8064;51.142;4.780;2023-02-26T02:10:14;5.47;;;2.57;;
15929;SDS011;8064;51.142;4.780;2023-02-26T02:12:44;7.37;;;2.53;;
15929;SDS011;8064;51.142;4.780;2023-02-26T02:23:46;6.43;;;2.60;;
15929;SDS011;8064;51.142;4.780;2023-02-26T02:34:44;7.23;;;2.37;;
15929;SDS011;8064;51.142;4.780;2023-02-26T02:37:19;7.20;;;2.47;;
15929;SDS011;8064;51.142;4.780;2023-02-26T02:42:48;5.30;;;2.00;;
15929;SDS011;8064;51.142;4.780;2023-02-26T02:45:25;4.77;;;2.37;;
15929;SDS011;8064;51.142;4.780;2023-02-26T02:48:08;5.60;;;2.00;;
15929;SDS011;8064;51.142;4.780;2023-02-26T02:58:41;7.67;;;2.00;;
15929;SDS011;8064;51.142;4.780;2023-02-26T03:01:12;6.53;;;2.10;;
15929;SDS011;8064;51.142;4.780;2023-02-26T03:03:46;4.87;;;1.90;;
15929;SDS011;8064;51.142;4.780;2023-02-26T03:06:30;6.50;;;2.00;;
15929;SDS011;8064;51.142;4.780;2023-02-26T03:08:56;4.23;;;1.73;;
15929;SDS011;8064;51.142;4.780;2023-02-26T03:11:24;5.07;;;2.00;;
15929;SDS011;8064;51.142;4.780;2023-02-26T03:13:49;8.10;;;1.80;;
15929;SDS011;8064;51.142;4.780;2023-02-26T03:16:21;4.60;;;1.77;;
15929;SDS011;8064;51.142;4.780;2023-02-26T03:22:21;7.73;;;2.10;;
15929;SDS011;8064;51.142;4.780;2023-02-26T03:28:07;3.97;;;1.80;;
15929;SDS011;8064;51.142;4.780;2023-02-26T03:30:55;6.83;;;2.00;;
15929;SDS011;8064;51.142;4.780;2023-02-26T03:33:42;7.03;;;2.10;;
15929;SDS011;8064;51.142;4.780;2023-02-26T03:36:21;5.50;;;2.00;;
15929;SDS011;8064;51.142;4.780;2023-02-26T03:41:39;7.60;;;2.37;;
15929;SDS011;8064;51.142;4.780;2023-02-26T03:44:12;4.20;;;1.80;;
15929;SDS011;8064;51.142;4.780;2023-02-26T03:46:44;6.67;;;1.50;;
15929;SDS011;8064;51.142;4.780;2023-02-26T03:49:17;3.93;;;1.40;;
15929;SDS011;8064;51.142;4.780;2023-02-26T03:51:50;7.07;;;2.00;;
15929;SDS011;8064;51.142;4.780;2023-02-26T03:54:20;5.30;;;1.30;;
15929;SDS011;8064;51.142;4.780;2023-02-26T03:56:51;3.50;;;1.50;;
15929;SDS011;8064;51.142;4.780;2023-02-26T03:59:18;5.17;;;1.47;;
15929;SDS011;8064;51.142;4.780;2023-02-26T04:07:06;4.17;;;1.33;;
15929;SDS011;8064;51.142;4.780;2023-02-26T04:09:35;4.63;;;1.47;;
15929;SDS011;8064;51.142;4.780;2023-02-26T04:12:01;4.17;;;1.83;;
15929;SDS011;8064;51.142;4.780;2023-02-26T04:14:27;4.47;;;1.83;;
15929;SDS011;8064;51.142;4.780;2023-02-26T04:16:53;7.40;;;1.77;;
15929;SDS011;8064;51.142;4.780;2023-02-26T04:19:19;6.33;;;1.70;;
15929;SDS011;8064;51.142;4.780;2023-02-26T04:21:45;4.90;;;1.47;;
15929;SDS011;8064;51.142;4.780;2023-02-26T04:24:11;4.43;;;1.33;;
15929;SDS011;8064;51.142;4.780;2023-02-26T04:26:36;2.50;;;1.20;;
15929;SDS011;8064;51.142;4.780;2023-02-26T04:29:02;3.93;;;1.40;;
15929;SDS011;8064;51.142;4.780;2023-02-26T04:31:28;3.50;;;1.10;;
15929;SDS011;8064;51.142;4.780;2023-02-26T04:33:54;5.57;;;1.30;;
15929;SDS011;8064;51.142;4.780;2023-02-26T04:36:20;4.87;;;1.47;;
15929;SDS011;8064;51.142;4.780;2023-02-26T04:38:45;5.43;;;1.53;;
15929;SDS011;8064;51.142;4.780;2023-02-26T04:41:11;6.53;;;1.70;;
15929;SDS011;8064;51.142;4.780;2023-02-26T04:43:37;5.27;;;1.40;;
15929;SDS011;8064;51.142;4.780;2023-02-26T04:46:03;5.87;;;1.30;;
15929;SDS011;8064;51.142;4.780;2023-02-26T04:48:29;4.60;;;1.20;;
15929;SDS011;8064;51.142;4.780;2023-02-26T04:50:54;4.47;;;1.23;;
15929;SDS011;8064;51.142;4.780;2023-02-26T04:53:20;4.73;;;1.47;;
15929;SDS011;8064;51.142;4.780;2023-02-26T04:55:46;5.10;;;1.37;;
15929;SDS011;8064;51.142;4.780;2023-02-26T04:58:13;7.00;;;1.30;;
15929;SDS011;8064;51.142;4.780;2023-02-26T05:00:38;5.90;;;1.17;;
15929;SDS011;8064;51.142;4.780;2023-02-26T05:03:04;4.33;;;1.13;;
15929;SDS011;8064;51.142;4.780;2023-02-26T05:05:31;8.70;;;1.50;;
15929;SDS011;8064;51.142;4.780;2023-02-26T05:07:56;2.93;;;1.23;;
15929;SDS011;8064;51.142;4.780;2023-02-26T05:10:23;5.03;;;1.10;;
15929;SDS011;8064;51.142;4.780;2023-02-26T05:12:49;4.10;;;1.10;;
15929;SDS011;8064;51.142;4.780;2023-02-26T05:15:15;3.87;;;1.20;;
15929;SDS011;8064;51.142;4.780;2023-02-26T05:17:41;5.17;;;1.47;;
15929;SDS011;8064;51.142;4.780;2023-02-26T05:20:07;2.50;;;1.23;;
15929;SDS011;8064;51.142;4.780;2023-02-26T05:22:35;5.33;;;1.13;;
15929;SDS011;8064;51.142;4.780;2023-02-26T05:25:02;5.27;;;1.20;;
15929;SDS011;8064;51.142;4.780;2023-02-26T05:27:29;4.40;;;1.60;;
15929;SDS011;8064;51.142;4.780;2023-02-26T05:29:55;2.47;;;0.97;;
15929;SDS011;8064;51.142;4.780;2023-02-26T05:32:20;7.87;;;1.27;;
15929;SDS011;8064;51.142;4.780;2023-02-26T05:34:46;6.70;;;1.37;;
15929;SDS011;8064;51.142;4.780;2023-02-26T05:37:12;4.47;;;1.30;;
15929;SDS011;8064;51.142;4.780;2023-02-26T05:39:38;4.70;;;1.30;;
15929;SDS011;8064;51.142;4.780;2023-02-26T05:42:05;2.23;;;1.07;;
15929;SDS011;8064;51.142;4.780;2023-02-26T05:44:32;5.33;;;1.27;;
15929;SDS011;8064;51.142;4.780;2023-02-26T05:46:59;6.50;;;1.13;;
15929;SDS011;8064;51.142;4.780;2023-02-26T05:49:25;3.57;;;1.23;;
15929;SDS011;8064;51.142;4.780;2023-02-26T05:51:51;4.10;;;1.30;;
15929;SDS011;8064;51.142;4.780;2023-02-26T05:54:18;3.03;;;1.33;;
15929;SDS011;8064;51.142;4.780;2023-02-26T05:56:43;5.80;;;1.40;;
15929;SDS011;8064;51.142;4.780;2023-02-26T05:59:09;5.83;;;1.27;;
15929;SDS011;8064;51.142;4.780;2023-02-26T06:01:35;4.10;;;1.10;;
15929;SDS011;8064;51.142;4.780;2023-02-26T06:04:02;3.83;;;0.97;;
15929;SDS011;8064;51.142;4.780;2023-02-26T06:06:28;4.00;;;1.20;;
15929;SDS011;8064;51.142;4.780;2023-02-26T06:08:55;7.90;;;1.13;;
15929;SDS011;8064;51.142;4.780;2023-02-26T06:11:21;3.40;;;1.40;;
15929;SDS011;8064;51.142;4.780;2023-02-26T06:13:47;6.07;;;1.40;;
15929;SDS011;8064;51.142;4.780;2023-02-26T06:16:13;4.90;;;1.43;;
15929;SDS011;8064;51.142;4.780;2023-02-26T06:18:39;5.47;;;1.30;;
15929;SDS011;8064;51.142;4.780;2023-02-26T06:21:05;5.33;;;1.10;;
15929;SDS011;8064;51.142;4.780;2023-02-26T06:23:30;6.83;;;1.13;;
15929;SDS011;8064;51.142;4.780;2023-02-26T06:25:56;3.57;;;1.33;;
15929;SDS011;8064;51.142;4.780;2023-02-26T06:28:24;4.30;;;1.10;;
15929;SDS011;8064;51.142;4.780;2023-02-26T06:30:51;4.70;;;1.10;;
15929;SDS011;8064;51.142;4.780;2023-02-26T06:33:17;4.03;;;0.97;;
15929;SDS011;8064;51.142;4.780;2023-02-26T06:35:43;4.50;;;1.13;;
15929;SDS011;8064;51.142;4.780;2023-02-26T06:38:09;3.43;;;1.20;;
15929;SDS011;8064;51.142;4.780;2023-02-26T06:40:35;7.60;;;1.17;;
15929;SDS011;8064;51.142;4.780;2023-02-26T06:43:01;6.27;;;1.13;;
15929;SDS011;8064;51.142;4.780;2023-02-26T06:45:27;5.77;;;1.23;;
15929;SDS011;8064;51.142;4.780;2023-02-26T06:47:54;5.43;;;1.13;;
15929;SDS011;8064;51.142;4.780;2023-02-26T06:50:19;7.43;;;1.23;;
15929;SDS011;8064;51.142;4.780;2023-02-26T06:52:45;7.73;;;1.87;;
15929;SDS011;8064;51.142;4.780;2023-02-26T06:55:11;5.10;;;1.23;;
15929;SDS011;8064;51.142;4.780;2023-02-26T06:57:37;5.17;;;1.40;;
15929;SDS011;8064;51.142;4.780;2023-02-26T07:00:04;4.57;;;1.40;;
15929;SDS011;8064;51.142;4.780;2023-02-26T07:02:30;5.90;;;1.30;;
15929;SDS011;8064;51.142;4.780;2023-02-26T07:04:57;4.80;;;1.53;;
15929;SDS011;8064;51.142;4.780;2023-02-26T07:07:22;3.13;;;1.30;;
15929;SDS011;8064;51.142;4.780;2023-02-26T07:09:48;4.23;;;1.43;;
15929;SDS011;8064;51.142;4.780;2023-02-26T07:12:14;5.80;;;1.40;;
15929;SDS011;8064;51.142;4.780;2023-02-26T07:14:40;3.03;;;1.10;;
15929;SDS011;8064;51.142;4.780;2023-02-26T07:17:07;4.80;;;1.10;;
15929;SDS011;8064;51.142;4.780;2023-02-26T07:19:33;4.67;;;1.53;;
15929;SDS011;8064;51.142;4.780;2023-02-26T07:21:59;5.57;;;1.20;;
15929;SDS011;8064;51.142;4.780;2023-02-26T07:24:25;4.50;;;1.03;;
15929;SDS011;8064;51.142;4.780;2023-02-26T07:26:50;4.93;;;1.07;;
15929;SDS011;8064;51.142;4.780;2023-02-26T07:29:16;4.27;;;1.40;;
15929;SDS011;8064;51.142;4.780;2023-02-26T07:31:42;6.47;;;1.43;;
15929;SDS011;8064;51.142;4.780;2023-02-26T07:34:08;5.40;;;1.20;;
15929;SDS011;8064;51.142;4.780;2023-02-26T07:36:34;7.50;;;1.40;;
15929;SDS011;8064;51.142;4.780;2023-02-26T07:39:00;4.27;;;1.17;;
15929;SDS011;8064;51.142;4.780;2023-02-26T07:41:26;4.67;;;1.40;;
15929;SDS011;8064;51.142;4.780;2023-02-26T07:43:52;4.60;;;1.10;;
15929;SDS011;8064;51.142;4.780;2023-02-26T07:46:18;4.57;;;1.60;;
15929;SDS011;8064;51.142;4.780;2023-02-26T07:48:43;4.70;;;1.90;;
15929;SDS011;8064;51.142;4.780;2023-02-26T07:51:09;5.67;;;2.50;;
15929;SDS011;8064;51.142;4.780;2023-02-26T07:53:35;6.50;;;2.70;;
15929;SDS011;8064;51.142;4.780;2023-02-26T07:56:01;6.77;;;1.93;;
15929;SDS011;8064;51.142;4.780;2023-02-26T07:58:27;5.40;;;1.83;;
15929;SDS011;8064;51.142;4.780;2023-02-26T08:00:53;2.20;;;1.20;;
15929;SDS011;8064;51.142;4.780;2023-02-26T08:03:19;5.47;;;1.20;;
15929;SDS011;8064;51.142;4.780;2023-02-26T08:05:45;2.77;;;0.87;;
15929;SDS011;8064;51.142;4.780;2023-02-26T08:08:11;2.63;;;1.00;;
15929;SDS011;8064;51.142;4.780;2023-02-26T08:10:37;4.83;;;1.00;;
15929;SDS011;8064;51.142;4.780;2023-02-26T08:13:05;3.57;;;0.90;;
15929;SDS011;8064;51.142;4.780;2023-02-26T08:15:31;5.07;;;1.00;;
15929;SDS011;8064;51.142;4.780;2023-02-26T08:17:57;1.50;;;0.90;;
15929;SDS011;8064;51.142;4.780;2023-02-26T08:20:22;1.90;;;0.87;;
15929;SDS011;8064;51.142;4.780;2023-02-26T08:22:49;4.23;;;0.80;;
15929;SDS011;8064;51.142;4.780;2023-02-26T08:25:16;3.57;;;1.27;;
15929;SDS011;8064;51.142;4.780;2023-02-26T08:27:42;4.07;;;0.93;;
15929;SDS011;8064;51.142;4.780;2023-02-26T08:30:08;2.60;;;1.00;;
15929;SDS011;8064;51.142;4.780;2023-02-26T08:32:34;2.67;;;0.80;;
15929;SDS011;8064;51.142;4.780;2023-02-26T08:35:00;3.03;;;1.20;;
15929;SDS011;8064;51.142;4.780;2023-02-26T08:37:26;5.10;;;0.90;;
15929;SDS011;8064;51.142;4.780;2023-02-26T08:39:52;3.87;;;0.80;;
15929;SDS011;8064;51.142;4.780;2023-02-26T08:42:18;2.30;;;0.70;;
15929;SDS011;8064;51.142;4.780;2023-02-26T08:44:44;1.97;;;0.80;;
15929;SDS011;8064;51.142;4.780;2023-02-26T08:47:11;1.90;;;0.80;;
15929;SDS011;8064;51.142;4.780;2023-02-26T08:49:37;3.10;;;0.73;;
15929;SDS011;8064;51.142;4.780;2023-02-26T08:52:02;3.53;;;0.93;;
15929;SDS011;8064;51.142;4.780;2023-02-26T08:54:28;3.13;;;0.80;;
15929;SDS011;8064;51.142;4.780;2023-02-26T08:56:54;3.10;;;0.90;;
15929;SDS011;8064;51.142;4.780;2023-02-26T08:59:22;3.47;;;1.13;;
15929;SDS011;8064;51.142;4.780;2023-02-26T09:01:48;5.23;;;1.00;;
15929;SDS011;8064;51.142;4.780;2023-02-26T09:04:14;3.47;;;0.90;;
15929;SDS011;8064;51.142;4.780;2023-02-26T09:06:40;3.30;;;1.13;;
15929;SDS011;8064;51.142;4.780;2023-02-26T09:09:05;1.63;;;0.60;;
15929;SDS011;8064;51.142;4.780;2023-02-26T09:11:31;2.77;;;0.80;;
15929;SDS011;8064;51.142;4.780;2023-02-26T09:13:57;4.47;;;1.10;;
15929;SDS011;8064;51.142;4.780;2023-02-26T09:16:23;5.83;;;0.83;;
15929;SDS011;8064;51.142;4.780;2023-02-26T09:18:50;3.20;;;0.90;;
15929;SDS011;8064;51.142;4.780;2023-02-26T09:21:17;4.67;;;1.00;;
15929;SDS011;8064;51.142;4.780;2023-02-26T09:23:46;4.27;;;1.40;;
15929;SDS011;8064;51.142;4.780;2023-02-26T09:26:13;4.20;;;1.13;;
15929;SDS011;8064;51.142;4.780;2023-02-26T09:28:39;2.60;;;1.10;;
15929;SDS011;8064;51.142;4.780;2023-02-26T09:31:05;1.90;;;0.80;;
15929;SDS011;8064;51.142;4.780;2023-02-26T09:33:32;1.93;;;0.60;;
15929;SDS011;8064;51.142;4.780;2023-02-26T09:35:58;1.93;;;0.63;;
15929;SDS011;8064;51.142;4.780;2023-02-26T09:38:24;2.50;;;0.83;;
15929;SDS011;8064;51.142;4.780;2023-02-26T09:46:27;5.73;;;1.17;;
15929;SDS011;8064;51.142;4.780;2023-02-26T09:48:59;1.63;;;0.60;;
15929;SDS011;8064;51.142;4.780;2023-02-26T09:51:48;3.10;;;1.17;;
15929;SDS011;8064;51.142;4.780;2023-02-26T09:54:20;2.40;;;0.83;;
15929;SDS011;8064;51.142;4.780;2023-02-26T09:56:48;2.83;;;0.77;;
15929;SDS011;8064;51.142;4.780;2023-02-26T09:59:15;2.07;;;0.67;;
15929;SDS011;8064;51.142;4.780;2023-02-26T10:01:45;4.50;;;0.80;;
15929;SDS011;8064;51.142;4.780;2023-02-26T10:10:17;2.00;;;0.80;;
15929;SDS011;8064;51.142;4.780;2023-02-26T10:12:53;1.83;;;0.80;;
15929;SDS011;8064;51.142;4.780;2023-02-26T10:15:32;3.17;;;0.87;;
15929;SDS011;8064;51.142;4.780;2023-02-26T10:18:04;3.00;;;1.00;;
15929;SDS011;8064;51.142;4.780;2023-02-26T10:20:38;4.10;;;1.07;;
15929;SDS011;8064;51.142;4.780;2023-02-26T10:23:22;2.47;;;0.83;;
15929;SDS011;8064;51.142;4.780;2023-02-26T10:25:51;3.23;;;1.10;;
15929;SDS011;8064;51.142;4.780;2023-02-26T10:42:29;1.88;;;1.02;;
15929;SDS011;8064;51.142;4.780;2023-02-26T10:45:17;2.58;;;1.00;;
15929;SDS011;8064;51.142;4.780;2023-02-26T10:48:08;4.57;;;1.08;;
15929;SDS011;8064;51.142;4.780;2023-02-26T10:53:36;2.80;;;0.90;;
15929;SDS011;8064;51.142;4.780;2023-02-26T10:58:50;2.17;;;1.05;;
15929;SDS011;8064;51.142;4.780;2023-02-26T11:01:17;3.75;;;1.27;;
15929;SDS011;8064;51.142;4.780;2023-02-26T11:03:45;2.08;;;1.00;;
15929;SDS011;8064;51.142;4.780;2023-02-26T11:06:17;2.05;;;1.25;;
15929;SDS011;8064;51.142;4.780;2023-02-26T11:08:48;2.00;;;0.95;;
15929;SDS011;8064;51.142;4.780;2023-02-26T11:14:14;2.10;;;1.00;;
15929;SDS011;8064;51.142;4.780;2023-02-26T11:16:41;2.53;;;1.20;;
15929;SDS011;8064;51.142;4.780;2023-02-26T11:19:12;2.17;;;1.02;;
15929;SDS011;8064;51.142;4.780;2023-02-26T11:21:40;3.33;;;1.30;;
15929;SDS011;8064;51.142;4.780;2023-02-26T11:27:07;2.10;;;1.17;;
15929;SDS011;8064;51.142;4.780;2023-02-26T11:29:38;2.58;;;1.38;;
15929;SDS011;8064;51.142;4.780;2023-02-26T11:32:06;2.33;;;1.30;;
15929;SDS011;8064;51.142;4.780;2023-02-26T11:34:56;2.50;;;1.27;;
15929;SDS011;8064;51.142;4.780;2023-02-26T11:37:23;3.20;;;1.20;;
15929;SDS011;8064;51.142;4.780;2023-02-26T11:39:55;2.00;;;0.90;;
15929;SDS011;8064;51.142;4.780;2023-02-26T11:42:23;2.25;;;0.90;;
15929;SDS011;8064;51.142;4.780;2023-02-26T11:44:50;2.45;;;1.00;;
15929;SDS011;8064;51.142;4.780;2023-02-26T11:47:18;3.05;;;0.88;;
15929;SDS011;8064;51.142;4.780;2023-02-26T11:52:54;1.33;;;0.73;;
15929;SDS011;8064;51.142;4.780;2023-02-26T11:55:31;4.07;;;0.75;;
15929;SDS011;8064;51.142;4.780;2023-02-26T11:58:00;1.73;;;0.90;;
15929;SDS011;8064;51.142;4.780;2023-02-26T12:00:40;2.42;;;0.82;;
15929;SDS011;8064;51.142;4.780;2023-02-26T12:03:07;2.27;;;0.97;;
15929;SDS011;8064;51.142;4.780;2023-02-26T12:05:39;2.33;;;0.73;;
15929;SDS011;8064;51.142;4.780;2023-02-26T12:08:21;1.33;;;0.70;;
15929;SDS011;8064;51.142;4.780;2023-02-26T12:30:45;1.20;;;0.50;;
15929;SDS011;8064;51.142;4.780;2023-02-26T12:41:57;2.27;;;0.53;;
15929;SDS011;8064;51.142;4.780;2023-02-26T12:50:41;1.40;;;0.50;;
15929;SDS011;8064;51.142;4.780;2023-02-26T12:53:32;1.37;;;0.53;;
15929;SDS011;8064;51.142;4.780;2023-02-26T12:56:35;1.87;;;0.70;;
15929;SDS011;8064;51.142;4.780;2023-02-26T13:01:58;2.47;;;0.63;;
15929;SDS011;8064;51.142;4.780;2023-02-26T13:10:30;1.07;;;0.60;;
15929;SDS011;8064;51.142;4.780;2023-02-26T13:16:06;2.60;;;0.87;;
15929;SDS011;8064;51.142;4.780;2023-02-26T13:18:44;3.23;;;1.10;;
15929;SDS011;8064;51.142;4.780;2023-02-26T13:24:18;2.47;;;0.50;;
15929;SDS011;8064;51.142;4.780;2023-02-26T13:26:56;1.13;;;0.60;;
15929;SDS011;8064;51.142;4.780;2023-02-26T13:29:23;1.20;;;0.60;;
15929;SDS011;8064;51.142;4.780;2023-02-26T13:32:11;2.50;;;0.60;;
15929;SDS011;8064;51.142;4.780;2023-02-26T13:37:23;1.37;;;0.50;;
15929;SDS011;8064;51.142;4.780;2023-02-26T13:42:40;2.60;;;0.67;;
15929;SDS011;8064;51.142;4.780;2023-02-26T13:56:14;1.17;;;0.70;;
15929;SDS011;8064;51.142;4.780;2023-02-26T14:04:25;2.80;;;0.77;;
15929;SDS011;8064;51.142;4.780;2023-02-26T14:20:44;3.03;;;0.87;;
15929;SDS011;8064;51.142;4.780;2023-02-26T14:23:13;2.50;;;0.80;;
15929;SDS011;8064;51.142;4.780;2023-02-26T14:25:52;2.03;;;0.50;;
15929;SDS011;8064;51.142;4.780;2023-02-26T14:31:22;1.33;;;0.50;;
15929;SDS011;8064;51.142;4.780;2023-02-26T14:36:51;1.10;;;0.60;;
15929;SDS011;8064;51.142;4.780;2023-02-26T14:42:01;2.30;;;0.80;;
15929;SDS011;8064;51.142;4.780;2023-02-26T14:47:14;3.63;;;0.70;;
15929;SDS011;8064;51.142;4.780;2023-02-26T14:49:43;1.47;;;0.60;;
15929;SDS011;8064;51.142;4.780;2023-02-26T14:52:15;2.03;;;0.80;;
15929;SDS011;8064;51.142;4.780;2023-02-26T15:06:23;2.40;;;0.67;;
15929;SDS011;8064;51.142;4.780;2023-02-26T15:11:43;1.23;;;0.70;;
15929;SDS011;8064;51.142;4.780;2023-02-26T15:14:34;1.80;;;0.70;;
15929;SDS011;8064;51.142;4.780;2023-02-26T15:28:19;1.60;;;0.83;;
15929;SDS011;8064;51.142;4.780;2023-02-26T15:30:47;3.50;;;0.87;;
15929;SDS011;8064;51.142;4.780;2023-02-26T15:33:13;2.07;;;0.70;;
15929;SDS011;8064;51.142;4.780;2023-02-26T15:35:43;2.13;;;0.73;;
15929;SDS011;8064;51.142;4.780;2023-02-26T15:38:09;1.40;;;0.57;;
15929;SDS011;8064;51.142;4.780;2023-02-26T15:40:35;1.53;;;0.63;;
15929;SDS011;8064;51.142;4.780;2023-02-26T15:43:02;5.90;;;0.90;;
15929;SDS011;8064;51.142;4.780;2023-02-26T15:45:32;1.70;;;0.80;;
15929;SDS011;8064;51.142;4.780;2023-02-26T15:48:02;1.93;;;0.57;;
15929;SDS011;8064;51.142;4.780;2023-02-26T15:50:35;2.00;;;0.60;;
15929;SDS011;8064;51.142;4.780;2023-02-26T15:53:04;1.93;;;0.73;;
15929;SDS011;8064;51.142;4.780;2023-02-26T15:55:35;2.77;;;0.63;;
15929;SDS011;8064;51.142;4.780;2023-02-26T15:58:04;1.53;;;0.70;;
15929;SDS011;8064;51.142;4.780;2023-02-26T16:00:33;1.97;;;0.90;;
15929;SDS011;8064;51.142;4.780;2023-02-26T16:03:01;1.67;;;0.50;;
15929;SDS011;8064;51.142;4.780;2023-02-26T16:05:28;2.33;;;0.87;;
15929;SDS011;8064;51.142;4.780;2023-02-26T16:07:55;1.33;;;0.63;;
15929;SDS011;8064;51.142;4.780;2023-02-26T16:13:09;1.80;;;0.50;;
15929;SDS011;8064;51.142;4.780;2023-02-26T16:15:39;0.90;;;0.60;;
15929;SDS011;8064;51.142;4.780;2023-02-26T16:18:07;2.50;;;0.97;;
15929;SDS011;8064;51.142;4.780;2023-02-26T16:20:40;1.77;;;0.60;;
15929;SDS011;8064;51.142;4.780;2023-02-26T16:23:11;3.00;;;0.67;;
15929;SDS011;8064;51.142;4.780;2023-02-26T16:28:30;1.93;;;0.70;;
15929;SDS011;8064;51.142;4.780;2023-02-26T16:30:59;1.07;;;0.40;;
15929;SDS011;8064;51.142;4.780;2023-02-26T16:33:30;2.07;;;0.60;;
15929;SDS011;8064;51.142;4.780;2023-02-26T16:38:49;1.73;;;0.60;;
15929;SDS011;8064;51.142;4.780;2023-02-26T16:41:22;3.10;;;1.03;;
15929;SDS011;8064;51.142;4.780;2023-02-26T16:43:51;3.30;;;0.83;;
15929;SDS011;8064;51.142;4.780;2023-02-26T16:48:49;1.23;;;0.70;;
15929;SDS011;8064;51.142;4.780;2023-02-26T16:51:19;1.77;;;0.73;;
15929;SDS011;8064;51.142;4.780;2023-02-26T16:56:16;1.03;;;0.60;;
15929;SDS011;8064;51.142;4.780;2023-02-26T16:58:45;1.93;;;0.60;;
15929;SDS011;8064;51.142;4.780;2023-02-26T17:01:15;2.93;;;0.60;;
15929;SDS011;8064;51.142;4.780;2023-02-26T17:03:45;1.97;;;0.80;;
15929;SDS011;8064;51.142;4.780;2023-02-26T17:06:14;0.80;;;0.60;;
15929;SDS011;8064;51.142;4.780;2023-02-26T17:11:30;4.30;;;0.80;;
15929;SDS011;8064;51.142;4.780;2023-02-26T17:14:12;1.73;;;0.70;;
15929;SDS011;8064;51.142;4.780;2023-02-26T17:16:43;1.67;;;0.60;;
15929;SDS011;8064;51.142;4.780;2023-02-26T17:19:10;1.97;;;0.70;;
15929;SDS011;8064;51.142;4.780;2023-02-26T17:21:40;0.73;;;0.40;;
15929;SDS011;8064;51.142;4.780;2023-02-26T17:24:12;1.17;;;0.73;;
15929;SDS011;8064;51.142;4.780;2023-02-26T17:26:41;1.60;;;0.60;;
15929;SDS011;8064;51.142;4.780;2023-02-26T17:29:10;2.10;;;0.70;;
15929;SDS011;8064;51.142;4.780;2023-02-26T17:31:56;2.30;;;0.80;;
15929;SDS011;8064;51.142;4.780;2023-02-26T17:34:22;1.60;;;0.80;;
15929;SDS011;8064;51.142;4.780;2023-02-26T17:36:48;2.73;;;0.70;;
15929;SDS011;8064;51.142;4.780;2023-02-26T17:39:14;2.73;;;0.93;;
15929;SDS011;8064;51.142;4.780;2023-02-26T17:41:42;2.87;;;0.50;;
15929;SDS011;8064;51.142;4.780;2023-02-26T17:44:09;1.50;;;0.60;;
15929;SDS011;8064;51.142;4.780;2023-02-26T17:46:35;1.73;;;0.80;;
15929;SDS011;8064;51.142;4.780;2023-02-26T17:49:01;1.43;;;0.80;;
15929;SDS011;8064;51.142;4.780;2023-02-26T17:51:27;1.10;;;0.70;;
15929;SDS011;8064;51.142;4.780;2023-02-26T17:53:53;1.53;;;0.77;;
15929;SDS011;8064;51.142;4.780;2023-02-26T17:56:21;1.97;;;0.70;;
15929;SDS011;8064;51.142;4.780;2023-02-26T17:58:49;1.77;;;0.80;;
15929;SDS011;8064;51.142;4.780;2023-02-26T18:01:16;2.40;;;0.90;;
15929;SDS011;8064;51.142;4.780;2023-02-26T18:03:42;1.93;;;0.80;;
15929;SDS011;8064;51.142;4.780;2023-02-26T18:06:08;1.63;;;0.93;;
15929;SDS011;8064;51.142;4.780;2023-02-26T18:08:38;1.30;;;0.70;;
15929;SDS011;8064;51.142;4.780;2023-02-26T18:11:04;2.40;;;0.90;;
15929;SDS011;8064;51.142;4.780;2023-02-26T18:13:31;2.33;;;1.00;;
15929;SDS011;8064;51.142;4.780;2023-02-26T18:15:58;2.60;;;0.93;;
15929;SDS011;8064;51.142;4.780;2023-02-26T18:18:26;1.20;;;0.90;;
15929;SDS011;8064;51.142;4.780;2023-02-26T18:20:53;1.43;;;0.90;;
15929;SDS011;8064;51.142;4.780;2023-02-26T18:23:19;1.43;;;0.93;;
15929;SDS011;8064;51.142;4.780;2023-02-26T18:25:46;2.27;;;0.80;;
15929;SDS011;8064;51.142;4.780;2023-02-26T18:28:16;1.83;;;1.00;;
15929;SDS011;8064;51.142;4.780;2023-02-26T18:30:44;1.33;;;0.97;;
15929;SDS011;8064;51.142;4.780;2023-02-26T18:33:11;4.60;;;1.60;;
15929;SDS011;8064;51.142;4.780;2023-02-26T18:35:37;2.80;;;1.60;;
15929;SDS011;8064;51.142;4.780;2023-02-26T18:38:10;3.57;;;1.80;;
15929;SDS011;8064;51.142;4.780;2023-02-26T18:40:38;2.23;;;1.60;;
15929;SDS011;8064;51.142;4.780;2023-02-26T18:43:05;3.17;;;1.63;;
15929;SDS011;8064;51.142;4.780;2023-02-26T18:45:30;2.57;;;1.53;;
15929;SDS011;8064;51.142;4.780;2023-02-26T18:47:56;2.13;;;1.40;;
15929;SDS011;8064;51.142;4.780;2023-02-26T18:50:23;3.70;;;1.40;;
15929;SDS011;8064;51.142;4.780;2023-02-26T18:52:49;3.27;;;1.50;;
15929;SDS011;8064;51.142;4.780;2023-02-26T18:55:15;3.43;;;1.40;;
15929;SDS011;8064;51.142;4.780;2023-02-26T18:57:42;2.47;;;1.40;;
15929;SDS011;8064;51.142;4.780;2023-02-26T19:00:10;2.50;;;1.53;;
15929;SDS011;8064;51.142;4.780;2023-02-26T19:02:38;2.97;;;1.60;;
15929;SDS011;8064;51.142;4.780;2023-02-26T19:05:07;1.97;;;1.23;;
15929;SDS011;8064;51.142;4.780;2023-02-26T19:07:34;2.20;;;1.30;;
15929;SDS011;8064;51.142;4.780;2023-02-26T19:10:00;2.50;;;1.20;;
15929;SDS011;8064;51.142;4.780;2023-02-26T19:12:26;1.60;;;1.10;;
15929;SDS011;8064;51.142;4.780;2023-02-26T19:14:52;2.33;;;1.30;;
15929;SDS011;8064;51.142;4.780;2023-02-26T19:17:18;2.90;;;1.10;;
15929;SDS011;8064;51.142;4.780;2023-02-26T19:19:45;2.80;;;1.40;;
15929;SDS011;8064;51.142;4.780;2023-02-26T19:22:11;3.03;;;1.47;;
15929;SDS011;8064;51.142;4.780;2023-02-26T19:24:39;3.10;;;1.50;;